sensor_id;sensor_type;location;lat;lon;timestamp;pressure;altitude;pressure_sealevel;temperature
18474;BMP180;30265;52.408;13.500;2022-07-06T00:00:17;101833.00;;;17.20
18474;BMP180;30265;52.408;13.500;2022-07-06T00:10:40;101826.00;;;17.20
18474;BMP180;30265;52.408;13.500;2022-07-06T00:21:08;101828.00;;;17.10
18474;BMP180;30265;52.408;13.500;2022-07-06T00:31:43;101826.00;;;16.90
18474;BMP180;30265;52.408;13.500;2022-07-06T00:42:26;101818.00;;;16.80
18474;BMP180;30265;52.408;13.500;2022-07-06T00:52:52;101816.00;;;16.90
18474;BMP180;30265;52.408;13.500;2022-07-06T01:03:22;101815.00;;;16.80
18474;BMP180;30265;52.408;13.500;2022-07-06T01:13:47;101833.00;;;16.70
18474;BMP180;30265;52.408;13.500;2022-07-06T01:24:50;101825.00;;;16.50
18474;BMP180;30265;52.408;13.500;2022-07-06T01:58:16;101819.00;;;16.40
18474;BMP180;30265;52.408;13.500;2022-07-06T02:08:45;101807.00;;;16.50
18474;BMP180;30265;52.408;13.500;2022-07-06T02:31:04;101858.00;;;17.20
18474;BMP180;30265;52.408;13.500;2022-07-06T02:41:45;101858.00;;;16.80
18474;BMP180;30265;52.408;13.500;2022-07-06T02:52:41;101880.00;;;16.50
18474;BMP180;30265;52.408;13.500;2022-07-06T03:03:04;101880.00;;;16.40
18474;BMP180;30265;52.408;13.500;2022-07-06T03:13:33;101882.00;;;16.30
18474;BMP180;30265;52.408;13.500;2022-07-06T03:23:55;101890.00;;;16.30
18474;BMP180;30265;52.408;13.500;2022-07-06T03:34:19;101889.00;;;15.90
18474;BMP180;30265;52.408;13.500;2022-07-06T03:44:41;101891.00;;;14.80
18474;BMP180;30265;52.408;13.500;2022-07-06T03:55:29;101884.00;;;14.70
18474;BMP180;30265;52.408;13.500;2022-07-06T04:05:55;101896.00;;;14.70
18474;BMP180;30265;52.408;13.500;2022-07-06T04:16:17;101879.00;;;15.00
18474;BMP180;30265;52.408;13.500;2022-07-06T04:26:40;101884.00;;;15.20
18474;BMP180;30265;52.408;13.500;2022-07-06T05:01:14;101883.00;;;16.30
18474;BMP180;30265;52.408;13.500;2022-07-06T05:11:42;101875.00;;;16.30
18474;BMP180;30265;52.408;13.500;2022-07-06T05:22:06;101882.00;;;16.40
18474;BMP180;30265;52.408;13.500;2022-07-06T05:32:29;101883.00;;;16.50
18474;BMP180;30265;52.408;13.500;2022-07-06T05:42:53;101874.00;;;16.50
18474;BMP180;30265;52.408;13.500;2022-07-06T05:53:15;101891.00;;;17.50
18474;BMP180;30265;52.408;13.500;2022-07-06T06:03:45;101877.00;;;17.40
18474;BMP180;30265;52.408;13.500;2022-07-06T06:14:07;101869.00;;;17.90
18474;BMP180;30265;52.408;13.500;2022-07-06T06:24:31;101875.00;;;17.90
18474;BMP180;30265;52.408;13.500;2022-07-06T06:34:53;101884.00;;;17.60
18474;BMP180;30265;52.408;13.500;2022-07-06T06:45:16;101880.00;;;18.20
18474;BMP180;30265;52.408;13.500;2022-07-06T06:55:38;101864.00;;;18.20
18474;BMP180;30265;52.408;13.500;2022-07-06T07:06:01;101885.00;;;18.90
18474;BMP180;30265;52.408;13.500;2022-07-06T07:16:23;101886.00;;;18.40
18474;BMP180;30265;52.408;13.500;2022-07-06T07:26:47;101880.00;;;19.50
18474;BMP180;30265;52.408;13.500;2022-07-06T07:37:08;101881.00;;;19.40
18474;BMP180;30265;52.408;13.500;2022-07-06T07:47:32;101885.00;;;19.10
18474;BMP180;30265;52.408;13.500;2022-07-06T07:57:54;101890.00;;;19.30
18474;BMP180;30265;52.408;13.500;2022-07-06T08:08:18;101895.00;;;19.30
18474;BMP180;30265;52.408;13.500;2022-07-06T08:18:40;101909.00;;;19.00
18474;BMP180;30265;52.408;13.500;2022-07-06T08:29:04;101878.00;;;19.70
18474;BMP180;30265;52.408;13.500;2022-07-06T08:39:30;101922.00;;;19.10
18474;BMP180;30265;52.408;13.500;2022-07-06T08:49:57;101906.00;;;19.60
18474;BMP180;30265;52.408;13.500;2022-07-06T09:00:19;101907.00;;;19.20
18474;BMP180;30265;52.408;13.500;2022-07-06T09:10:42;101920.00;;;18.60
18474;BMP180;30265;52.408;13.500;2022-07-06T09:21:07;101948.00;;;18.40
18474;BMP180;30265;52.408;13.500;2022-07-06T09:31:32;101944.00;;;18.40
18474;BMP180;30265;52.408;13.500;2022-07-06T09:41:58;101927.00;;;18.20
18474;BMP180;30265;52.408;13.500;2022-07-06T09:52:26;101928.00;;;19.30
18474;BMP180;30265;52.408;13.500;2022-07-06T10:02:49;101927.00;;;19.20
18474;BMP180;30265;52.408;13.500;2022-07-06T10:13:20;101919.00;;;20.30
18474;BMP180;30265;52.408;13.500;2022-07-06T10:23:43;101928.00;;;19.10
18474;BMP180;30265;52.408;13.500;2022-07-06T10:34:15;101933.00;;;19.30
18474;BMP180;30265;52.408;13.500;2022-07-06T10:44:44;101917.00;;;19.90
18474;BMP180;30265;52.408;13.500;2022-07-06T10:55:27;101912.00;;;20.30
18474;BMP180;30265;52.408;13.500;2022-07-06T11:05:57;101905.00;;;20.00
18474;BMP180;30265;52.408;13.500;2022-07-06T11:16:32;101932.00;;;19.80
18474;BMP180;30265;52.408;13.500;2022-07-06T11:26:59;101897.00;;;21.90
18474;BMP180;30265;52.408;13.500;2022-07-06T11:37:23;101915.00;;;20.80
18474;BMP180;30265;52.408;13.500;2022-07-06T11:47:48;101923.00;;;19.20
18474;BMP180;30265;52.408;13.500;2022-07-06T11:58:11;101928.00;;;19.90
18474;BMP180;30265;52.408;13.500;2022-07-06T12:08:41;101870.00;;;21.70
18474;BMP180;30265;52.408;13.500;2022-07-06T12:19:04;101880.00;;;20.90
18474;BMP180;30265;52.408;13.500;2022-07-06T12:29:27;101891.00;;;20.80
18474;BMP180;30265;52.408;13.500;2022-07-06T12:39:50;101907.00;;;19.90
18474;BMP180;30265;52.408;13.500;2022-07-06T12:50:12;101891.00;;;20.70
18474;BMP180;30265;52.408;13.500;2022-07-06T13:00:45;101887.00;;;20.50
18474;BMP180;30265;52.408;13.500;2022-07-06T13:11:07;101885.00;;;20.40
18474;BMP180;30265;52.408;13.500;2022-07-06T13:21:30;101874.00;;;20.80
18474;BMP180;30265;52.408;13.500;2022-07-06T13:31:52;101869.00;;;20.80
18474;BMP180;30265;52.408;13.500;2022-07-06T13:42:15;101890.00;;;20.50
18474;BMP180;30265;52.408;13.500;2022-07-06T13:52:37;101854.00;;;21.30
18474;BMP180;30265;52.408;13.500;2022-07-06T14:03:00;101889.00;;;20.30
18474;BMP180;30265;52.408;13.500;2022-07-06T14:13:23;101886.00;;;20.00
18474;BMP180;30265;52.408;13.500;2022-07-06T14:23:46;101865.00;;;20.80
18474;BMP180;30265;52.408;13.500;2022-07-06T14:34:09;101865.00;;;20.50
18474;BMP180;30265;52.408;13.500;2022-07-06T14:44:33;101862.00;;;20.50
18474;BMP180;30265;52.408;13.500;2022-07-06T14:54:54;101864.00;;;20.30
18474;BMP180;30265;52.408;13.500;2022-07-06T15:05:19;101876.00;;;20.20
18474;BMP180;30265;52.408;13.500;2022-07-06T15:15:41;101873.00;;;19.80
18474;BMP180;30265;52.408;13.500;2022-07-06T15:26:18;101879.00;;;19.60
18474;BMP180;30265;52.408;13.500;2022-07-06T15:36:40;101869.00;;;19.50
18474;BMP180;30265;52.408;13.500;2022-07-06T15:47:07;101861.00;;;19.60
18474;BMP180;30265;52.408;13.500;2022-07-06T15:57:29;101849.00;;;19.70
18474;BMP180;30265;52.408;13.500;2022-07-06T16:07:54;101841.00;;;19.50
18474;BMP180;30265;52.408;13.500;2022-07-06T16:18:35;101841.00;;;20.00
18474;BMP180;30265;52.408;13.500;2022-07-06T16:28:59;101844.00;;;19.90
18474;BMP180;30265;52.408;13.500;2022-07-06T16:39:21;101821.00;;;20.20
18474;BMP180;30265;52.408;13.500;2022-07-06T16:49:44;101810.00;;;20.90
18474;BMP180;30265;52.408;13.500;2022-07-06T17:00:07;101813.00;;;20.10
18474;BMP180;30265;52.408;13.500;2022-07-06T17:10:35;101815.00;;;19.50
18474;BMP180;30265;52.408;13.500;2022-07-06T17:21:01;101810.00;;;19.40
18474;BMP180;30265;52.408;13.500;2022-07-06T17:31:25;101816.00;;;19.40
18474;BMP180;30265;52.408;13.500;2022-07-06T17:41:47;101811.00;;;19.10
18474;BMP180;30265;52.408;13.500;2022-07-06T17:52:10;101814.00;;;19.00
18474;BMP180;30265;52.408;13.500;2022-07-06T18:02:35;101804.00;;;19.00
18474;BMP180;30265;52.408;13.500;2022-07-06T18:12:59;101804.00;;;18.90
18474;BMP180;30265;52.408;13.500;2022-07-06T18:23:21;101798.00;;;18.80
18474;BMP180;30265;52.408;13.500;2022-07-06T18:33:45;101799.00;;;18.70
18474;BMP180;30265;52.408;13.500;2022-07-06T18:44:06;101788.00;;;18.60
18474;BMP180;30265;52.408;13.500;2022-07-06T18:54:30;101794.00;;;18.50
18474;BMP180;30265;52.408;13.500;2022-07-06T19:04:51;101785.00;;;18.40
18474;BMP180;30265;52.408;13.500;2022-07-06T19:15:15;101785.00;;;18.40
18474;BMP180;30265;52.408;13.500;2022-07-06T19:25:39;101782.00;;;18.20
18474;BMP180;30265;52.408;13.500;2022-07-06T19:36:02;101786.00;;;18.00
18474;BMP180;30265;52.408;13.500;2022-07-06T19:46:24;101777.00;;;17.80
18474;BMP180;30265;52.408;13.500;2022-07-06T19:56:50;101780.00;;;17.40
18474;BMP180;30265;52.408;13.500;2022-07-06T20:07:13;101781.00;;;16.90
18474;BMP180;30265;52.408;13.500;2022-07-06T20:17:36;101780.00;;;16.50
18474;BMP180;30265;52.408;13.500;2022-07-06T20:27:58;101771.00;;;16.20
18474;BMP180;30265;52.408;13.500;2022-07-06T20:38:22;101739.00;;;15.90
18474;BMP180;30265;52.408;13.500;2022-07-06T20:48:44;101746.00;;;15.50
18474;BMP180;30265;52.408;13.500;2022-07-06T20:59:08;101744.00;;;15.70
18474;BMP180;30265;52.408;13.500;2022-07-06T21:09:33;101757.00;;;15.50
18474;BMP180;30265;52.408;13.500;2022-07-06T21:19:56;101737.00;;;15.10
18474;BMP180;30265;52.408;13.500;2022-07-06T21:30:17;101735.00;;;14.80
18474;BMP180;30265;52.408;13.500;2022-07-06T21:40:41;101730.00;;;14.80
18474;BMP180;30265;52.408;13.500;2022-07-06T21:51:03;101722.00;;;14.40
18474;BMP180;30265;52.408;13.500;2022-07-06T22:01:26;101722.00;;;14.30
18474;BMP180;30265;52.408;13.500;2022-07-06T22:11:48;101715.00;;;14.30
18474;BMP180;30265;52.408;13.500;2022-07-06T22:22:12;101700.00;;;14.40
18474;BMP180;30265;52.408;13.500;2022-07-06T22:32:33;101695.00;;;14.30
18474;BMP180;30265;52.408;13.500;2022-07-06T22:42:56;101688.00;;;14.10
18474;BMP180;30265;52.408;13.500;2022-07-06T22:53:19;101681.00;;;13.90
18474;BMP180;30265;52.408;13.500;2022-07-06T23:03:42;101669.00;;;13.90
18474;BMP180;30265;52.408;13.500;2022-07-06T23:14:11;101663.00;;;13.90
18474;BMP180;30265;52.408;13.500;2022-07-06T23:24:34;101659.00;;;14.00
18474;BMP180;30265;52.408;13.500;2022-07-06T23:34:55;101644.00;;;13.90
18474;BMP180;30265;52.408;13.500;2022-07-06T23:45:19;101637.00;;;13.90
18474;BMP180;30265;52.408;13.500;2022-07-06T23:55:41;101629.00;;;13.90
